createdAt,value
2023-08-23T00:00:21.592Z,32.79
2023-08-23T00:02:48.257Z,32.81
2023-08-23T00:05:14.887Z,32.82
2023-08-23T00:07:41.536Z,32.81
2023-08-23T00:10:08.144Z,32.78
2023-08-23T00:12:34.746Z,32.82
2023-08-23T00:15:01.341Z,32.84
2023-08-23T00:17:28.005Z,32.84
2023-08-23T00:19:54.646Z,32.84
2023-08-23T00:22:21.242Z,32.80
2023-08-23T00:24:47.853Z,32.83
2023-08-23T00:27:14.460Z,32.81
2023-08-23T00:29:41.057Z,32.80
2023-08-23T00:32:07.659Z,32.76
2023-08-23T00:34:34.254Z,32.78
2023-08-23T00:37:00.895Z,32.77
2023-08-23T00:39:27.494Z,32.79
2023-08-23T00:41:54.101Z,32.78
2023-08-23T00:44:20.699Z,32.77
2023-08-23T00:46:47.303Z,32.78
2023-08-23T00:49:13.924Z,32.79
2023-08-23T00:51:40.559Z,32.77
2023-08-23T00:54:07.166Z,32.77
2023-08-23T00:56:33.764Z,32.76
2023-08-23T00:59:00.365Z,32.76
2023-08-23T01:01:27.025Z,32.78
2023-08-23T01:03:53.642Z,32.76
2023-08-23T01:06:20.307Z,32.75
2023-08-23T01:08:46.956Z,32.75
2023-08-23T01:11:13.603Z,32.76
2023-08-23T01:13:40.209Z,32.77
2023-08-23T01:16:06.838Z,32.77
2023-08-23T01:18:33.465Z,32.75
2023-08-23T01:21:00.073Z,32.74
2023-08-23T01:23:26.661Z,32.76
2023-08-23T01:25:53.256Z,32.74
2023-08-23T01:28:19.905Z,32.72
2023-08-23T01:30:46.520Z,32.72
2023-08-23T01:33:13.148Z,32.72
2023-08-23T01:35:39.752Z,32.71
2023-08-23T01:38:06.349Z,32.71
2023-08-23T01:40:32.954Z,32.73
2023-08-23T01:42:59.578Z,32.77
2023-08-23T01:45:26.192Z,32.74
2023-08-23T01:47:52.806Z,32.74
2023-08-23T01:50:19.425Z,32.75
2023-08-23T01:52:46.028Z,32.73
2023-08-23T01:55:12.623Z,32.72
2023-08-23T01:57:39.227Z,32.73
2023-08-23T02:00:05.825Z,32.74
2023-08-23T02:02:32.498Z,32.72
2023-08-23T02:04:59.178Z,32.70
2023-08-23T02:07:25.799Z,32.69
2023-08-23T02:09:52.419Z,32.68
2023-08-23T02:12:19.016Z,32.66
2023-08-23T02:14:45.611Z,32.66
2023-08-23T02:17:12.222Z,32.67
2023-08-23T02:19:38.823Z,32.67
2023-08-23T02:22:05.426Z,32.69
2023-08-23T02:24:32.030Z,32.69
2023-08-23T02:26:58.623Z,32.71
2023-08-23T02:29:25.221Z,32.70
2023-08-23T02:31:51.808Z,32.72
2023-08-23T02:34:18.435Z,32.72
2023-08-23T02:36:45.040Z,32.70
2023-08-23T02:39:11.655Z,32.70
2023-08-23T02:41:38.263Z,32.70
2023-08-23T02:44:04.877Z,32.69
2023-08-23T02:46:31.519Z,32.68
2023-08-23T02:48:58.137Z,32.68
2023-08-23T02:51:24.744Z,32.68
2023-08-23T02:53:51.342Z,32.65
2023-08-23T02:56:17.946Z,32.65
2023-08-23T02:58:44.542Z,32.65
2023-08-23T03:01:11.216Z,32.66
2023-08-23T03:03:37.864Z,32.65
2023-08-23T03:06:04.528Z,32.66
2023-08-23T03:08:31.129Z,32.66
2023-08-23T03:10:57.743Z,32.67
2023-08-23T03:13:24.357Z,32.68
2023-08-23T03:15:50.963Z,32.69
2023-08-23T03:18:17.645Z,32.69
2023-08-23T03:20:44.260Z,32.68
2023-08-23T03:23:10.861Z,32.68
2023-08-23T03:25:37.461Z,32.66
2023-08-23T03:28:04.072Z,32.66
2023-08-23T03:30:30.680Z,32.66
2023-08-23T03:32:57.340Z,32.64
2023-08-23T03:35:23.958Z,32.62
2023-08-23T03:37:50.640Z,32.62
2023-08-23T03:40:17.244Z,32.60
2023-08-23T03:42:43.852Z,32.60
2023-08-23T03:45:10.469Z,32.59
2023-08-23T03:47:37.092Z,32.59
2023-08-23T03:50:03.738Z,32.59
2023-08-23T03:52:30.345Z,32.62
2023-08-23T03:54:56.953Z,32.63
2023-08-23T03:57:23.564Z,32.62
2023-08-23T03:59:50.179Z,32.61
2023-08-23T04:02:16.784Z,32.64
2023-08-23T04:04:43.415Z,32.51
2023-08-23T04:07:10.022Z,32.39
2023-08-23T04:09:36.618Z,32.29
2023-08-23T04:12:03.246Z,32.22
2023-08-23T04:14:29.897Z,32.14
2023-08-23T04:16:56.502Z,32.11
2023-08-23T04:19:23.110Z,32.05
2023-08-23T04:21:49.695Z,31.95
2023-08-23T04:24:16.381Z,31.96
2023-08-23T04:26:42.998Z,31.92
2023-08-23T04:29:09.592Z,31.88
2023-08-23T04:31:36.249Z,31.83
2023-08-23T04:34:02.857Z,31.78
2023-08-23T04:36:29.495Z,31.75
2023-08-23T04:38:56.105Z,31.70
2023-08-23T04:41:22.724Z,31.66
2023-08-23T04:43:49.360Z,31.60
2023-08-23T04:46:15.983Z,31.58
2023-08-23T04:48:42.618Z,31.55
2023-08-23T04:51:09.214Z,31.51
2023-08-23T04:53:35.826Z,31.48
2023-08-23T04:56:02.417Z,31.46
2023-08-23T04:58:29.024Z,31.45
2023-08-23T05:00:55.680Z,31.42
2023-08-23T05:03:22.270Z,31.42
2023-08-23T05:05:48.915Z,31.57
2023-08-23T05:08:15.515Z,31.63
2023-08-23T05:10:42.105Z,31.64
2023-08-23T05:13:08.690Z,31.67
2023-08-23T05:15:35.314Z,31.68
2023-08-23T05:18:01.952Z,31.71
2023-08-23T05:20:28.568Z,31.73
2023-08-23T05:22:55.181Z,31.73
2023-08-23T05:25:21.797Z,31.73
2023-08-23T05:27:48.692Z,31.74
2023-08-23T05:30:15.703Z,31.75
2023-08-23T05:32:42.331Z,31.75
2023-08-23T05:35:08.958Z,31.75
2023-08-23T05:37:35.550Z,31.75
2023-08-23T05:40:02.160Z,31.76
2023-08-23T05:42:28.749Z,31.76
2023-08-23T05:44:55.341Z,31.77
2023-08-23T05:47:21.949Z,31.78
2023-08-23T05:49:48.555Z,31.78
2023-08-23T05:52:15.182Z,31.78
2023-08-23T05:54:41.805Z,31.79
2023-08-23T05:57:08.397Z,31.78
2023-08-23T05:59:35.012Z,31.77
2023-08-23T06:02:01.624Z,31.65
2023-08-23T06:04:28.224Z,31.62
2023-08-23T06:06:54.835Z,31.65
2023-08-23T06:09:21.420Z,31.65
2023-08-23T06:11:48.019Z,31.67
2023-08-23T06:14:14.639Z,31.68
2023-08-23T06:16:41.287Z,31.69
2023-08-23T06:19:07.899Z,31.70
2023-08-23T06:21:34.486Z,31.70
2023-08-23T06:24:01.195Z,31.70
2023-08-23T06:26:27.816Z,31.72
2023-08-23T06:28:54.492Z,31.73
2023-08-23T06:31:21.170Z,31.73
2023-08-23T06:33:47.818Z,31.73
2023-08-23T06:36:14.450Z,31.73
2023-08-23T06:38:41.060Z,31.76
2023-08-23T06:41:07.664Z,31.76
2023-08-23T06:43:34.253Z,31.72
2023-08-23T06:46:00.902Z,31.71
2023-08-23T06:48:27.503Z,31.73
2023-08-23T06:50:54.096Z,31.74
2023-08-23T06:53:20.708Z,31.75
2023-08-23T06:55:47.340Z,31.76
2023-08-23T06:58:13.956Z,31.76
2023-08-23T07:00:40.588Z,31.75
2023-08-23T07:03:07.264Z,31.72
2023-08-23T07:05:33.887Z,31.72
2023-08-23T07:08:00.535Z,31.73
2023-08-23T07:10:28.455Z,31.75
2023-08-23T07:12:55.687Z,31.75
2023-08-23T07:15:22.312Z,31.76
2023-08-23T07:17:49.125Z,31.73
2023-08-23T07:20:15.997Z,31.77
2023-08-23T07:22:42.616Z,31.77
2023-08-23T07:25:09.233Z,31.79
2023-08-23T07:27:35.825Z,31.80
2023-08-23T07:30:02.445Z,31.80
2023-08-23T07:32:29.074Z,31.80
2023-08-23T07:34:55.728Z,31.77
2023-08-23T07:37:22.339Z,31.76
2023-08-23T07:39:48.961Z,31.68
2023-08-23T07:42:15.573Z,31.70
2023-08-23T07:44:42.161Z,31.70
2023-08-23T07:47:08.758Z,31.69
2023-08-23T07:49:35.357Z,31.68
2023-08-23T07:52:01.971Z,31.69
2023-08-23T07:54:28.583Z,31.69
2023-08-23T07:56:55.184Z,31.68
2023-08-23T07:59:22.652Z,31.67
2023-08-23T08:01:49.375Z,31.64
2023-08-23T08:04:16.117Z,31.73
2023-08-23T08:06:42.764Z,31.77
2023-08-23T08:09:09.373Z,32.06
2023-08-23T08:11:35.988Z,31.57
2023-08-23T08:14:02.610Z,31.91
2023-08-23T08:16:29.303Z,32.11
2023-08-23T08:18:55.936Z,32.25
2023-08-23T08:21:22.562Z,32.35
2023-08-23T08:23:49.279Z,32.26
2023-08-23T08:26:15.958Z,32.27
2023-08-23T08:28:42.574Z,32.18
2023-08-23T08:31:09.165Z,32.13
2023-08-23T08:33:35.769Z,32.14
2023-08-23T08:36:02.377Z,32.19
2023-08-23T08:38:28.971Z,32.15
2023-08-23T08:40:58.524Z,32.30
2023-08-23T08:43:25.133Z,32.36
2023-08-23T08:45:51.800Z,32.32
2023-08-23T08:48:18.510Z,32.35
2023-08-23T08:50:45.114Z,32.29
2023-08-23T08:53:11.713Z,32.38
2023-08-23T08:55:38.366Z,32.38
2023-08-23T08:58:05.065Z,32.28
2023-08-23T09:00:31.977Z,32.25
2023-08-23T09:02:58.723Z,32.15
2023-08-23T09:05:25.510Z,32.29
2023-08-23T09:07:52.112Z,32.22
2023-08-23T09:10:18.729Z,32.33
2023-08-23T09:12:45.325Z,32.36
2023-08-23T09:15:11.919Z,32.37
2023-08-23T09:17:38.538Z,32.43
2023-08-23T09:20:05.187Z,32.35
2023-08-23T09:22:31.783Z,32.25
2023-08-23T09:24:58.382Z,31.82
2023-08-23T09:27:51.211Z,31.84
2023-08-23T09:30:11.585Z,31.80
2023-08-23T09:32:38.231Z,31.87
2023-08-23T09:35:04.854Z,31.89
2023-08-23T09:37:31.509Z,32.23
2023-08-23T09:39:58.152Z,32.13
2023-08-23T09:42:24.787Z,31.67
2023-08-23T09:44:51.384Z,31.43
2023-08-23T09:47:18.008Z,31.89
2023-08-23T09:49:44.669Z,32.13
2023-08-23T09:52:11.269Z,32.25
2023-08-23T09:54:47.632Z,32.30
2023-08-23T09:57:20.328Z,32.31
2023-08-23T09:59:46.934Z,32.36
2023-08-23T10:02:13.634Z,32.24
2023-08-23T10:04:40.295Z,32.30
2023-08-23T10:07:06.897Z,32.29
2023-08-23T10:09:33.501Z,32.33
2023-08-23T10:12:00.098Z,32.18
2023-08-23T10:14:26.727Z,32.24
2023-08-23T10:16:53.461Z,32.31
2023-08-23T10:19:20.064Z,32.39
2023-08-23T10:21:46.658Z,32.40
2023-08-23T10:24:13.297Z,32.41
2023-08-23T10:26:39.903Z,32.36
2023-08-23T10:29:06.487Z,32.36
2023-08-23T10:31:33.135Z,32.39
2023-08-23T10:33:59.765Z,32.42
2023-08-23T10:36:26.387Z,32.48
2023-08-23T10:38:52.993Z,32.53
2023-08-23T10:41:19.600Z,32.47
2023-08-23T10:43:46.211Z,32.51
2023-08-23T10:46:12.888Z,32.54
2023-08-23T10:48:39.503Z,32.51
2023-08-23T10:51:06.110Z,32.54
2023-08-23T10:53:32.716Z,32.53
2023-08-23T10:55:59.327Z,32.55
2023-08-23T10:58:26.031Z,32.30
2023-08-23T11:00:52.636Z,31.78
2023-08-23T11:03:19.233Z,31.60
2023-08-23T11:05:45.878Z,31.59
2023-08-23T11:08:12.594Z,31.54
2023-08-23T11:10:39.223Z,31.55
2023-08-23T11:13:05.824Z,31.54
2023-08-23T11:15:32.431Z,31.59
2023-08-23T11:17:59.065Z,31.57
2023-08-23T11:20:25.699Z,31.58
2023-08-23T11:22:52.305Z,31.61
2023-08-23T11:25:18.906Z,31.60
2023-08-23T11:27:45.739Z,31.62
2023-08-23T11:30:12.655Z,31.64
2023-08-23T11:32:39.263Z,31.65
2023-08-23T11:35:05.847Z,31.66
2023-08-23T11:37:32.487Z,31.67
2023-08-23T11:39:59.087Z,31.71
2023-08-23T11:42:25.691Z,31.74
2023-08-23T11:44:52.292Z,31.73
2023-08-23T11:47:18.901Z,31.74
2023-08-23T11:49:45.505Z,31.73
2023-08-23T11:52:12.100Z,31.77
2023-08-23T11:54:38.696Z,31.82
2023-08-23T11:57:05.295Z,31.81
2023-08-23T11:59:31.897Z,31.69
2023-08-23T12:01:58.507Z,31.70
2023-08-23T12:04:25.265Z,31.61
2023-08-23T12:06:51.894Z,31.60
2023-08-23T12:09:18.498Z,31.56
2023-08-23T12:11:45.095Z,31.47
2023-08-23T12:14:11.724Z,31.50
2023-08-23T12:16:38.389Z,31.51
2023-08-23T12:19:17.626Z,31.57
2023-08-23T12:21:51.556Z,31.61
2023-08-23T12:24:18.160Z,31.58
2023-08-23T12:26:44.777Z,31.57
2023-08-23T12:29:11.377Z,31.63
2023-08-23T12:31:37.998Z,31.75
2023-08-23T12:34:04.641Z,31.89
2023-08-23T12:36:31.239Z,31.92
2023-08-23T12:38:57.851Z,32.03
2023-08-23T12:41:24.448Z,32.01
2023-08-23T12:43:51.099Z,32.00
2023-08-23T12:46:17.803Z,31.78
2023-08-23T12:48:44.449Z,31.72
2023-08-23T12:51:11.048Z,31.72
2023-08-23T12:53:37.638Z,31.76
2023-08-23T12:56:04.231Z,31.80
2023-08-23T12:58:30.828Z,31.80
2023-08-23T13:00:59.589Z,31.86
2023-08-23T13:03:27.897Z,31.76
2023-08-23T13:05:54.505Z,31.71
2023-08-23T13:08:21.104Z,31.65
2023-08-23T13:10:47.703Z,31.74
2023-08-23T13:13:14.303Z,31.91
2023-08-23T13:15:40.989Z,31.91
2023-08-23T13:18:07.764Z,31.96
2023-08-23T13:20:34.387Z,31.91
2023-08-23T13:23:00.983Z,31.99
2023-08-23T13:25:27.605Z,32.05
2023-08-23T13:27:54.224Z,31.98
2023-08-23T13:30:20.852Z,32.13
2023-08-23T13:32:47.486Z,32.22
2023-08-23T13:35:14.237Z,32.39
2023-08-23T13:37:40.866Z,32.47
2023-08-23T13:40:07.455Z,32.50
2023-08-23T13:42:34.098Z,32.54
2023-08-23T13:45:00.816Z,32.55
2023-08-23T13:47:27.432Z,32.49
2023-08-23T13:49:54.051Z,32.29
2023-08-23T13:52:20.651Z,32.15
2023-08-23T13:54:47.253Z,32.09
2023-08-23T13:57:13.899Z,32.10
2023-08-23T13:59:40.551Z,32.10
2023-08-23T14:02:07.228Z,32.13
2023-08-23T14:04:33.990Z,32.16
2023-08-23T14:07:00.792Z,32.12
2023-08-23T14:09:27.392Z,32.10
2023-08-23T14:11:54.006Z,32.09
2023-08-23T14:14:20.603Z,32.07
2023-08-23T14:16:47.237Z,32.02
2023-08-23T14:19:13.881Z,32.09
2023-08-23T14:21:40.942Z,32.36
2023-08-23T14:24:07.646Z,32.58
2023-08-23T14:26:34.236Z,32.59
2023-08-23T14:29:00.842Z,32.24
2023-08-23T14:31:27.477Z,32.23
2023-08-23T14:33:54.092Z,32.17
2023-08-23T14:36:20.692Z,32.18
2023-08-23T14:38:47.284Z,32.10
2023-08-23T14:41:13.880Z,32.10
2023-08-23T14:43:40.481Z,32.15
2023-08-23T14:46:07.137Z,32.38
2023-08-23T14:48:33.742Z,32.51
2023-08-23T14:51:00.354Z,32.56
2023-08-23T14:53:26.974Z,32.63
2023-08-23T14:55:53.575Z,32.65
2023-08-23T14:58:20.180Z,32.66
2023-08-23T15:00:46.767Z,32.69
2023-08-23T15:03:13.456Z,32.71
2023-08-23T15:05:40.144Z,32.77
2023-08-23T15:08:08.539Z,32.77
2023-08-23T15:10:36.531Z,32.79
2023-08-23T15:13:03.147Z,32.79
2023-08-23T15:15:29.747Z,32.79
2023-08-23T15:17:56.360Z,32.81
2023-08-23T15:20:22.970Z,32.80
2023-08-23T15:22:49.564Z,32.81
2023-08-23T15:25:16.163Z,32.81
2023-08-23T15:27:44.303Z,32.81
2023-08-23T15:30:12.980Z,32.82
2023-08-23T15:32:40.781Z,32.83
2023-08-23T15:35:07.542Z,32.82
2023-08-23T15:37:34.320Z,32.82
2023-08-23T15:40:00.925Z,32.84
2023-08-23T15:42:27.536Z,32.84
2023-08-23T15:44:54.211Z,32.84
2023-08-23T15:47:20.854Z,32.82
2023-08-23T15:49:47.507Z,32.84
2023-08-23T15:52:14.121Z,32.85
2023-08-23T15:54:40.720Z,32.83
2023-08-23T15:57:07.330Z,32.86
2023-08-23T15:59:33.935Z,32.88
2023-08-23T16:02:00.556Z,32.89
2023-08-23T16:04:27.168Z,32.90
2023-08-23T16:06:53.778Z,32.89
2023-08-23T16:09:20.429Z,32.91
2023-08-23T16:11:47.017Z,32.90
2023-08-23T16:14:13.623Z,32.90
2023-08-23T16:16:40.225Z,32.89
2023-08-23T16:19:06.838Z,32.89
2023-08-23T16:21:33.431Z,32.92
2023-08-23T16:24:00.042Z,32.90
2023-08-23T16:26:26.657Z,32.92
2023-08-23T16:28:53.255Z,32.91
2023-08-23T16:31:19.866Z,32.93
2023-08-23T16:33:46.505Z,32.93
2023-08-23T16:36:13.175Z,32.94
2023-08-23T16:38:39.800Z,32.94
2023-08-23T16:41:06.471Z,32.94
2023-08-23T16:43:33.074Z,32.94
2023-08-23T16:45:59.728Z,32.94
2023-08-23T16:48:26.434Z,32.94
2023-08-23T16:50:53.048Z,32.93
2023-08-23T16:53:19.655Z,32.95
2023-08-23T16:55:46.261Z,32.95
2023-08-23T16:58:12.860Z,32.96
2023-08-23T17:00:39.472Z,32.95
2023-08-23T17:03:06.136Z,32.96
2023-08-23T17:05:32.814Z,32.99
2023-08-23T17:07:59.565Z,32.99
2023-08-23T17:10:26.195Z,32.99
2023-08-23T17:12:52.796Z,32.98
2023-08-23T17:15:19.402Z,32.99
2023-08-23T17:17:46.059Z,32.99
2023-08-23T17:20:12.664Z,32.99
2023-08-23T17:22:39.281Z,32.97
2023-08-23T17:25:05.889Z,32.97
2023-08-23T17:27:32.500Z,32.97
2023-08-23T17:29:59.101Z,32.98
2023-08-23T17:32:25.694Z,33.00
2023-08-23T17:34:52.279Z,32.98
2023-08-23T17:37:18.911Z,32.96
2023-08-23T17:39:45.530Z,32.97
2023-08-23T17:42:12.154Z,32.98
2023-08-23T17:44:38.740Z,32.96
2023-08-23T17:47:05.438Z,32.96
2023-08-23T17:49:32.074Z,32.97
2023-08-23T17:51:58.742Z,32.97
2023-08-23T17:54:25.380Z,32.96
2023-08-23T17:56:51.992Z,32.94
2023-08-23T17:59:18.595Z,32.93
2023-08-23T18:01:45.184Z,32.95
2023-08-23T18:04:11.789Z,32.95
2023-08-23T18:06:38.401Z,32.95
2023-08-23T18:09:05.021Z,32.94
2023-08-23T18:11:31.616Z,32.94
2023-08-23T18:13:58.310Z,32.93
2023-08-23T18:16:24.947Z,32.95
2023-08-23T18:18:51.813Z,32.94
2023-08-23T18:21:18.430Z,32.94
2023-08-23T18:23:45.045Z,32.95
2023-08-23T18:26:11.652Z,32.94
2023-08-23T18:28:38.260Z,32.94
2023-08-23T18:31:04.903Z,32.91
2023-08-23T18:33:31.531Z,32.92
2023-08-23T18:35:58.134Z,32.90
2023-08-23T18:38:24.721Z,32.89
2023-08-23T18:40:51.320Z,32.88
2023-08-23T18:43:17.913Z,32.89
2023-08-23T18:45:44.508Z,32.89
2023-08-23T18:48:11.103Z,32.90
2023-08-23T18:50:37.787Z,32.89
2023-08-23T18:53:04.367Z,32.89
2023-08-23T18:55:30.974Z,32.91
2023-08-23T18:57:57.563Z,32.87
2023-08-23T19:00:24.201Z,32.86
2023-08-23T19:02:50.945Z,32.83
2023-08-23T19:05:17.713Z,32.86
2023-08-23T19:07:44.305Z,32.87
2023-08-23T19:10:10.895Z,32.82
2023-08-23T19:12:37.473Z,32.86
2023-08-23T19:15:04.063Z,32.87
2023-08-23T19:17:30.757Z,32.84
2023-08-23T19:19:57.387Z,32.82
2023-08-23T19:22:24.000Z,32.84
2023-08-23T19:24:50.590Z,32.82
2023-08-23T19:27:17.177Z,32.82
2023-08-23T19:29:43.777Z,32.82
2023-08-23T19:32:10.373Z,32.82
2023-08-23T19:34:36.980Z,32.80
2023-08-23T19:37:05.338Z,32.81
2023-08-23T19:39:33.311Z,32.81
2023-08-23T19:41:59.921Z,32.80
2023-08-23T19:44:26.504Z,32.81
2023-08-23T19:46:53.229Z,32.82
2023-08-23T19:49:19.831Z,32.80
2023-08-23T19:51:46.442Z,32.82
2023-08-23T19:54:13.039Z,32.80
2023-08-23T19:56:39.650Z,32.78
2023-08-23T19:59:06.259Z,32.81
2023-08-23T20:01:32.911Z,32.79
2023-08-23T20:03:59.649Z,32.79
2023-08-23T20:06:26.246Z,32.80
2023-08-23T20:09:02.084Z,32.81
2023-08-23T20:11:28.686Z,32.81
2023-08-23T20:13:55.269Z,32.78
2023-08-23T20:16:21.926Z,32.82
2023-08-23T20:18:48.541Z,32.82
2023-08-23T20:21:15.142Z,32.84
2023-08-23T20:23:41.748Z,32.83
2023-08-23T20:26:08.352Z,32.82
2023-08-23T20:28:34.956Z,32.84
2023-08-23T20:31:01.616Z,32.84
2023-08-23T20:33:28.238Z,32.86
2023-08-23T20:35:54.842Z,32.85
2023-08-23T20:38:21.423Z,32.84
2023-08-23T20:40:48.006Z,32.84
2023-08-23T20:43:14.598Z,32.85
2023-08-23T20:45:41.236Z,32.83
2023-08-23T20:48:07.993Z,32.82
2023-08-23T20:50:34.597Z,32.81
2023-08-23T20:53:01.226Z,32.75
2023-08-23T20:55:27.802Z,32.80
2023-08-23T20:57:54.401Z,32.79
2023-08-23T21:00:21.016Z,32.75
2023-08-23T21:02:47.704Z,32.71
2023-08-23T21:05:14.323Z,32.68
2023-08-23T21:07:40.929Z,32.68
2023-08-23T21:10:07.575Z,32.66
2023-08-23T21:12:34.168Z,32.72
2023-08-23T21:15:00.755Z,32.79
2023-08-23T21:17:27.396Z,32.74
2023-08-23T21:19:54.157Z,32.81
2023-08-23T21:22:20.797Z,32.78
2023-08-23T21:24:47.371Z,32.80
2023-08-23T21:27:14.320Z,32.81
2023-08-23T21:29:41.837Z,32.80
2023-08-23T21:32:08.459Z,32.82
2023-08-23T21:34:35.061Z,32.79
2023-08-23T21:37:01.650Z,32.78
2023-08-23T21:39:28.241Z,32.78
2023-08-23T21:41:54.834Z,32.78
2023-08-23T21:44:24.181Z,32.77
2023-08-23T21:46:50.776Z,32.77
2023-08-23T21:49:17.379Z,32.77
2023-08-23T21:51:43.964Z,32.77
2023-08-23T21:54:10.562Z,32.76
2023-08-23T21:56:37.152Z,32.75
2023-08-23T21:59:03.735Z,32.72
2023-08-23T22:01:30.329Z,32.74
2023-08-23T22:03:56.898Z,32.70
2023-08-23T22:06:23.485Z,32.66
2023-08-23T22:08:50.102Z,32.66
2023-08-23T22:11:16.678Z,32.67
2023-08-23T22:13:43.278Z,32.67
2023-08-23T22:16:09.997Z,32.66
2023-08-23T22:18:36.693Z,32.66
2023-08-23T22:21:03.275Z,32.66
2023-08-23T22:23:29.856Z,32.64
2023-08-23T22:25:56.470Z,32.63
2023-08-23T22:28:23.047Z,32.55
2023-08-23T22:30:49.622Z,32.50
2023-08-23T22:33:16.258Z,32.45
2023-08-23T22:35:42.845Z,32.38
2023-08-23T22:38:09.472Z,32.39
2023-08-23T22:40:36.072Z,32.37
2023-08-23T22:43:02.677Z,32.33
2023-08-23T22:45:29.264Z,32.36
2023-08-23T22:47:55.877Z,32.32
2023-08-23T22:50:22.488Z,32.37
2023-08-23T22:52:49.108Z,32.35
2023-08-23T22:55:15.745Z,32.38
2023-08-23T22:57:42.420Z,32.35
2023-08-23T23:00:09.041Z,32.33
2023-08-23T23:02:35.689Z,32.37
2023-08-23T23:05:02.366Z,32.37
2023-08-23T23:07:28.973Z,32.37
2023-08-23T23:09:55.591Z,32.37
2023-08-23T23:12:22.190Z,32.41
2023-08-23T23:14:48.814Z,32.39
2023-08-23T23:17:15.401Z,32.39
2023-08-23T23:19:42.019Z,32.37
2023-08-23T23:22:08.623Z,32.35
2023-08-23T23:24:35.217Z,32.26
2023-08-23T23:27:01.823Z,32.28
2023-08-23T23:29:28.423Z,32.27
2023-08-23T23:31:55.107Z,32.29
2023-08-23T23:34:21.713Z,32.26
2023-08-23T23:36:48.313Z,32.26
2023-08-23T23:39:14.907Z,32.23
2023-08-23T23:41:41.498Z,32.27
2023-08-23T23:44:08.114Z,32.25
2023-08-23T23:46:34.737Z,32.24
2023-08-23T23:49:01.328Z,32.24
2023-08-23T23:51:27.953Z,32.19
2023-08-23T23:53:54.540Z,32.14
2023-08-23T23:56:21.147Z,32.13
2023-08-23T23:58:47.738Z,32.10
